createdAt,value
2022-10-05T03:19:15.087Z,100.00
2022-10-05T03:22:38.926Z,100.00
2022-10-05T03:26:01.390Z,100.00
2022-10-05T03:29:25.304Z,100.00
2022-10-05T03:32:47.806Z,100.00
2022-10-05T03:36:07.659Z,100.00
2022-10-05T03:39:25.932Z,100.00
2022-10-05T03:42:48.490Z,100.00
2022-10-05T03:46:06.230Z,100.00
2022-10-05T03:49:24.639Z,100.00
2022-10-05T03:52:40.981Z,100.00
2022-10-05T03:55:56.319Z,100.00
2022-10-05T03:59:15.672Z,100.00
2022-10-05T04:02:30.331Z,100.00
2022-10-05T04:05:47.031Z,100.00
2022-10-05T04:09:03.698Z,100.00
2022-10-05T04:12:23.496Z,100.00
2022-10-05T04:15:40.047Z,100.00
2022-10-05T04:18:55.951Z,100.00
2022-10-05T04:22:10.934Z,100.00
2022-10-05T04:25:27.269Z,100.00
2022-10-05T04:28:46.364Z,100.00
2022-10-05T04:32:09.897Z,100.00
2022-10-05T04:35:34.071Z,100.00
2022-10-05T04:38:54.485Z,100.00
2022-10-05T04:42:14.035Z,100.00
2022-10-05T04:45:35.815Z,100.00
2022-10-05T04:49:03.390Z,100.00
2022-10-05T04:52:23.479Z,100.00
2022-10-05T04:55:43.424Z,100.00
2022-10-05T04:59:15.982Z,100.00
2022-10-05T07:13:11.734Z,100.00
2022-10-05T07:16:29.712Z,100.00
2022-10-05T07:19:52.293Z,100.00
2022-10-05T07:23:14.664Z,100.00
2022-10-05T07:26:31.870Z,100.00
2022-10-05T07:29:51.982Z,100.00
2022-10-05T07:33:09.643Z,100.00
2022-10-05T07:36:38.319Z,100.00
2022-10-05T07:40:01.566Z,100.00
2022-10-05T07:43:23.376Z,100.00
2022-10-05T07:46:47.448Z,100.00
2022-10-05T07:50:04.035Z,100.00
2022-10-05T07:53:19.814Z,100.00
2022-10-05T07:56:37.669Z,100.00
2022-10-05T07:59:56.731Z,100.00
2022-10-05T08:03:15.923Z,100.00
2022-10-05T08:06:39.220Z,100.00
2022-10-05T08:09:55.862Z,100.00
2022-10-05T08:13:13.203Z,100.00
2022-10-05T08:16:28.364Z,100.00
2022-10-05T08:19:47.489Z,100.00
2022-10-05T08:23:02.755Z,100.00
2022-10-05T08:26:19.547Z,100.00
2022-10-05T08:29:35.365Z,100.00
2022-10-05T08:32:51.517Z,100.00
2022-10-05T08:36:09.257Z,100.00
2022-10-05T08:39:21.461Z,100.00
2022-10-05T08:42:49.380Z,100.00
2022-10-05T08:46:19.348Z,100.00
2022-10-05T08:49:50.235Z,98.06
2022-10-05T08:53:29.470Z,98.17
2022-10-05T08:56:44.274Z,97.79
2022-10-05T09:00:06.218Z,97.09
2022-10-05T09:03:32.220Z,98.39
2022-10-05T09:07:07.512Z,99.33
2022-10-05T09:10:52.655Z,98.35
2022-10-05T09:14:22.620Z,93.04
2022-10-05T09:17:52.401Z,90.14
2022-10-05T09:21:07.571Z,87.88
2022-10-05T09:24:28.564Z,84.80
2022-10-05T09:27:45.604Z,84.65
2022-10-05T09:31:01.681Z,82.38
2022-10-05T09:34:31.558Z,78.99
2022-10-05T09:38:08.378Z,80.27
2022-10-05T09:41:39.610Z,82.41
2022-10-05T09:45:22.643Z,82.09
2022-10-05T09:48:57.100Z,83.29
2022-10-05T09:52:19.093Z,83.86
2022-10-05T09:55:49.367Z,85.30
2022-10-05T09:59:21.219Z,86.32
2022-10-05T10:02:52.352Z,85.20
2022-10-05T10:06:20.504Z,83.03
2022-10-05T10:09:39.507Z,79.20
2022-10-05T10:13:08.895Z,77.28
2022-10-05T10:16:31.075Z,79.38
2022-10-05T10:20:05.415Z,80.63
2022-10-05T10:23:29.407Z,80.09
2022-10-05T10:27:03.285Z,79.85
2022-10-05T10:30:32.032Z,79.01
2022-10-05T10:34:09.014Z,82.91
2022-10-05T10:37:39.138Z,86.70
2022-10-05T10:41:08.615Z,87.38
2022-10-05T10:44:49.067Z,87.15
2022-10-05T10:48:03.227Z,87.67
2022-10-05T10:51:20.164Z,89.12
2022-10-05T10:54:55.289Z,90.80
2022-10-05T10:58:40.776Z,91.19
2022-10-05T11:02:10.646Z,92.61
2022-10-05T11:05:37.213Z,90.47
2022-10-05T11:09:14.401Z,90.59
2022-10-05T11:12:57.991Z,86.07
2022-10-05T11:16:30.100Z,79.60
2022-10-05T11:20:05.019Z,76.57
2022-10-05T11:23:37.915Z,74.09
2022-10-05T11:27:07.705Z,71.88
2022-10-05T11:30:36.411Z,69.97
2022-10-05T11:34:11.356Z,67.77
2022-10-05T11:37:41.610Z,66.81
2022-10-05T11:41:14.780Z,69.58
2022-10-05T11:45:07.905Z,69.77
2022-10-05T11:48:31.589Z,69.85
2022-10-05T11:51:51.957Z,66.29
2022-10-05T11:55:15.439Z,68.17
2022-10-05T11:58:30.211Z,69.90
2022-10-05T12:01:45.620Z,71.87
2022-10-05T12:05:10.907Z,72.60
2022-10-05T12:08:32.556Z,71.30
2022-10-05T12:11:57.711Z,67.14
2022-10-05T12:15:18.425Z,66.29
2022-10-05T12:18:47.764Z,64.46
2022-10-05T12:22:04.479Z,65.61
2022-10-05T12:25:22.874Z,66.35
2022-10-05T12:28:37.756Z,66.51
2022-10-05T12:31:56.537Z,65.71
2022-10-05T12:35:36.241Z,65.63
2022-10-05T12:38:54.691Z,67.39
2022-10-05T12:42:17.877Z,65.77
2022-10-05T12:45:38.509Z,65.84
2022-10-05T12:49:04.057Z,66.08
2022-10-05T12:52:28.226Z,66.23
2022-10-05T12:55:48.740Z,65.20
2022-10-05T12:59:05.947Z,64.96
2022-10-05T13:02:27.122Z,64.11
2022-10-05T13:05:46.026Z,62.08
2022-10-05T13:09:02.825Z,63.29
2022-10-05T13:12:25.960Z,63.18
2022-10-05T13:15:43.645Z,63.86
2022-10-05T13:19:07.375Z,66.19
2022-10-05T13:22:26.481Z,66.09
2022-10-05T13:25:44.019Z,66.75
2022-10-05T13:29:00.453Z,68.44
2022-10-05T13:32:17.138Z,67.13
2022-10-05T13:35:40.310Z,68.55
2022-10-05T13:38:57.735Z,69.46
2022-10-05T13:42:14.173Z,68.96
2022-10-05T13:45:26.985Z,69.55
2022-10-05T13:48:51.679Z,70.03
2022-10-05T13:52:15.789Z,71.02
2022-10-05T13:55:38.584Z,72.51
2022-10-05T13:58:52.696Z,72.46
2022-10-05T14:02:08.980Z,72.84
2022-10-05T14:05:21.816Z,72.94
2022-10-05T14:08:34.384Z,72.49
2022-10-05T14:11:50.718Z,72.38
2022-10-05T14:15:20.520Z,73.38
2022-10-05T14:18:32.791Z,72.03
2022-10-05T14:21:49.453Z,73.28
2022-10-05T14:25:16.249Z,74.02
2022-10-05T14:28:29.771Z,71.95
2022-10-05T14:31:48.812Z,72.59
2022-10-05T14:35:14.976Z,73.09
2022-10-05T14:38:29.464Z,71.64
2022-10-05T14:41:46.965Z,71.48
2022-10-05T14:45:00.418Z,72.24
2022-10-05T14:48:12.265Z,71.20
2022-10-05T14:51:31.752Z,70.29
2022-10-05T14:54:53.874Z,69.07
2022-10-05T14:58:16.644Z,68.51
2022-10-05T15:01:30.873Z,69.06
2022-10-05T15:04:43.823Z,68.10
2022-10-05T15:08:01.133Z,68.11
2022-10-05T15:11:18.024Z,68.73
2022-10-05T15:14:31.729Z,68.69
2022-10-05T15:17:47.495Z,69.10
2022-10-05T15:21:16.839Z,66.65
2022-10-05T15:24:38.918Z,67.48
2022-10-05T15:28:04.516Z,67.95
2022-10-05T15:31:24.560Z,67.48
2022-10-05T15:34:42.312Z,68.48
2022-10-05T15:37:57.645Z,68.36
2022-10-05T15:41:15.960Z,68.79
2022-10-05T15:44:39.306Z,69.59
2022-10-05T15:47:57.204Z,69.27
2022-10-05T15:51:18.497Z,67.53
2022-10-05T15:54:52.453Z,68.31
2022-10-05T15:58:22.856Z,67.69
2022-10-05T16:01:48.159Z,67.34
2022-10-05T16:05:08.661Z,68.00
2022-10-05T16:08:48.637Z,69.23
2022-10-05T16:12:07.148Z,68.28
2022-10-05T16:15:26.594Z,70.34
2022-10-05T16:18:49.041Z,71.21
2022-10-05T16:22:08.807Z,73.40
2022-10-05T16:25:23.344Z,75.92
2022-10-05T16:28:44.491Z,74.21
2022-10-05T16:32:01.635Z,76.41
2022-10-05T16:35:20.762Z,75.96
2022-10-05T16:38:39.877Z,76.59
2022-10-05T16:41:58.780Z,75.44
2022-10-05T16:45:22.659Z,76.49
2022-10-05T16:49:18.953Z,76.29
2022-10-05T16:52:30.273Z,78.41
2022-10-05T16:55:48.766Z,78.66
2022-10-05T16:59:11.148Z,78.34
2022-10-05T17:02:36.856Z,79.96
2022-10-05T17:06:06.424Z,80.10
2022-10-05T17:09:39.517Z,80.64
2022-10-05T17:13:04.369Z,80.16
2022-10-05T17:16:28.655Z,80.92
2022-10-05T17:19:53.679Z,81.02
2022-10-05T17:23:18.937Z,81.74
2022-10-05T17:26:55.112Z,81.73
2022-10-05T17:30:23.349Z,82.91
2022-10-05T17:33:38.374Z,82.91
2022-10-05T17:37:00.213Z,83.77
2022-10-05T17:40:33.007Z,83.95
2022-10-05T17:44:20.702Z,82.73
2022-10-05T17:47:58.584Z,84.32
2022-10-05T17:51:31.177Z,85.65
2022-10-05T17:55:15.554Z,85.17
2022-10-05T17:58:54.979Z,86.99
2022-10-05T18:02:23.848Z,89.37
2022-10-05T18:05:37.242Z,90.39
2022-10-05T18:08:50.120Z,90.79
2022-10-05T18:12:25.954Z,90.85
2022-10-05T18:15:51.798Z,91.33
2022-10-05T18:19:17.023Z,90.37
2022-10-05T18:22:30.833Z,90.78
2022-10-05T18:25:49.509Z,90.49
2022-10-05T18:29:37.984Z,91.50
2022-10-05T18:33:06.212Z,91.03
2022-10-05T18:36:37.626Z,90.75
2022-10-05T18:40:13.765Z,91.10
2022-10-05T18:43:32.392Z,91.26
2022-10-05T18:46:54.548Z,91.22
2022-10-05T18:50:21.692Z,91.34
2022-10-05T18:53:44.543Z,91.58
2022-10-05T18:56:56.112Z,92.33
2022-10-05T19:00:16.358Z,91.23
2022-10-05T19:03:39.258Z,91.37
2022-10-05T19:06:57.061Z,91.10
2022-10-05T19:10:21.435Z,90.67
2022-10-05T19:13:44.518Z,91.75
2022-10-05T19:17:12.620Z,91.51
2022-10-05T19:20:32.805Z,90.96
2022-10-05T19:23:58.844Z,91.30
2022-10-05T19:27:28.155Z,90.65
2022-10-05T19:31:00.334Z,90.82
2022-10-05T19:34:21.052Z,91.67
2022-10-05T19:37:46.013Z,90.85
2022-10-05T19:41:04.935Z,92.78
2022-10-05T19:44:30.728Z,92.70
2022-10-05T19:47:53.671Z,92.73
2022-10-05T19:51:13.570Z,92.78
2022-10-05T19:54:30.261Z,94.05
2022-10-05T19:57:51.512Z,93.97
2022-10-05T20:01:07.328Z,94.04
2022-10-05T20:04:34.433Z,95.99
2022-10-05T20:07:47.723Z,95.99
2022-10-05T20:11:09.389Z,95.54
2022-10-05T20:14:31.625Z,95.60
2022-10-05T20:17:55.121Z,96.32
2022-10-05T20:21:06.438Z,97.27
2022-10-05T20:24:21.921Z,97.35
2022-10-05T20:27:44.258Z,97.94
2022-10-05T20:30:55.747Z,98.14
2022-10-05T20:34:08.457Z,98.32
2022-10-05T20:37:21.150Z,98.33
